sensor_id;sensor_type;location;lat;lon;timestamp;P1;durP1;ratioP1;P2;durP2;ratioP2
33579;SDS011;19909;43.644;-79.438;2022-08-19T00:00:27;1.00;;;0.70;;
33579;SDS011;19909;43.644;-79.438;2022-08-19T00:02:53;0.98;;;0.82;;
33579;SDS011;19909;43.644;-79.438;2022-08-19T00:05:20;0.77;;;0.77;;
33579;SDS011;19909;43.644;-79.438;2022-08-19T00:07:47;0.80;;;0.80;;
33579;SDS011;19909;43.644;-79.438;2022-08-19T00:10:15;0.57;;;0.57;;
33579;SDS011;19909;43.644;-79.438;2022-08-19T00:12:42;0.65;;;0.65;;
33579;SDS011;19909;43.644;-79.438;2022-08-19T00:15:12;1.13;;;0.80;;
33579;SDS011;19909;43.644;-79.438;2022-08-19T00:17:44;0.85;;;0.60;;
33579;SDS011;19909;43.644;-79.438;2022-08-19T00:20:11;1.00;;;0.82;;
33579;SDS011;19909;43.644;-79.438;2022-08-19T00:22:43;0.60;;;0.60;;
33579;SDS011;19909;43.644;-79.438;2022-08-19T00:25:10;0.43;;;0.40;;
33579;SDS011;19909;43.644;-79.438;2022-08-19T00:27:38;0.82;;;0.75;;
33579;SDS011;19909;43.644;-79.438;2022-08-19T00:30:04;0.80;;;0.70;;
33579;SDS011;19909;43.644;-79.438;2022-08-19T00:32:32;0.75;;;0.60;;
33579;SDS011;19909;43.644;-79.438;2022-08-19T00:34:59;1.80;;;0.80;;
33579;SDS011;19909;43.644;-79.438;2022-08-19T00:37:26;1.00;;;0.90;;
33579;SDS011;19909;43.644;-79.438;2022-08-19T00:39:54;1.33;;;1.02;;
33579;SDS011;19909;43.644;-79.438;2022-08-19T00:42:21;1.63;;;0.90;;
33579;SDS011;19909;43.644;-79.438;2022-08-19T00:44:48;0.70;;;0.70;;
33579;SDS011;19909;43.644;-79.438;2022-08-19T00:47:15;1.60;;;0.98;;
33579;SDS011;19909;43.644;-79.438;2022-08-19T00:55:17;1.20;;;1.00;;
33579;SDS011;19909;43.644;-79.438;2022-08-19T00:57:48;1.17;;;1.00;;
33579;SDS011;19909;43.644;-79.438;2022-08-19T01:00:23;1.77;;;1.15;;
33579;SDS011;19909;43.644;-79.438;2022-08-19T01:02:51;1.67;;;1.10;;
33579;SDS011;19909;43.644;-79.438;2022-08-19T01:05:24;1.45;;;0.98;;
33579;SDS011;19909;43.644;-79.438;2022-08-19T01:07:52;1.58;;;1.17;;
33579;SDS011;19909;43.644;-79.438;2022-08-19T01:10:23;0.70;;;0.63;;
33579;SDS011;19909;43.644;-79.438;2022-08-19T01:12:52;0.80;;;0.70;;
33579;SDS011;19909;43.644;-79.438;2022-08-19T01:15:21;1.08;;;0.98;;
33579;SDS011;19909;43.644;-79.438;2022-08-19T01:17:51;0.95;;;0.73;;
33579;SDS011;19909;43.644;-79.438;2022-08-19T01:20:20;1.15;;;0.65;;
33579;SDS011;19909;43.644;-79.438;2022-08-19T01:22:55;1.02;;;0.80;;
33579;SDS011;19909;43.644;-79.438;2022-08-19T01:28:26;0.60;;;0.60;;
33579;SDS011;19909;43.644;-79.438;2022-08-19T01:30:56;0.73;;;0.65;;
33579;SDS011;19909;43.644;-79.438;2022-08-19T01:33:22;1.33;;;0.70;;
33579;SDS011;19909;43.644;-79.438;2022-08-19T01:35:49;0.70;;;0.60;;
33579;SDS011;19909;43.644;-79.438;2022-08-19T01:38:21;0.88;;;0.60;;
33579;SDS011;19909;43.644;-79.438;2022-08-19T01:43:16;0.75;;;0.65;;
33579;SDS011;19909;43.644;-79.438;2022-08-19T01:45:44;1.08;;;0.68;;
33579;SDS011;19909;43.644;-79.438;2022-08-19T01:48:11;0.75;;;0.55;;
33579;SDS011;19909;43.644;-79.438;2022-08-19T01:50:39;1.40;;;0.55;;
33579;SDS011;19909;43.644;-79.438;2022-08-19T01:53:06;1.00;;;0.60;;
33579;SDS011;19909;43.644;-79.438;2022-08-19T01:55:36;1.08;;;0.70;;
33579;SDS011;19909;43.644;-79.438;2022-08-19T01:58:05;2.05;;;0.43;;
33579;SDS011;19909;43.644;-79.438;2022-08-19T02:00:46;0.80;;;0.57;;
33579;SDS011;19909;43.644;-79.438;2022-08-19T02:03:12;1.20;;;0.60;;
33579;SDS011;19909;43.644;-79.438;2022-08-19T02:05:40;0.40;;;0.40;;
33579;SDS011;19909;43.644;-79.438;2022-08-19T02:08:07;2.25;;;0.60;;
33579;SDS011;19909;43.644;-79.438;2022-08-19T02:10:38;1.45;;;0.55;;
33579;SDS011;19909;43.644;-79.438;2022-08-19T02:13:06;0.60;;;0.57;;
33579;SDS011;19909;43.644;-79.438;2022-08-19T02:15:33;0.57;;;0.57;;
33579;SDS011;19909;43.644;-79.438;2022-08-19T02:17:59;0.30;;;0.30;;
33579;SDS011;19909;43.644;-79.438;2022-08-19T02:20:25;0.57;;;0.40;;
33579;SDS011;19909;43.644;-79.438;2022-08-19T02:22:52;0.60;;;0.50;;
33579;SDS011;19909;43.644;-79.438;2022-08-19T02:25:18;0.50;;;0.30;;
33579;SDS011;19909;43.644;-79.438;2022-08-19T02:27:44;0.75;;;0.30;;
33579;SDS011;19909;43.644;-79.438;2022-08-19T02:30:12;0.60;;;0.40;;
33579;SDS011;19909;43.644;-79.438;2022-08-19T02:32:41;0.30;;;0.30;;
33579;SDS011;19909;43.644;-79.438;2022-08-19T02:35:08;0.30;;;0.30;;
33579;SDS011;19909;43.644;-79.438;2022-08-19T02:37:35;0.40;;;0.30;;
33579;SDS011;19909;43.644;-79.438;2022-08-19T02:40:20;0.73;;;0.50;;
33579;SDS011;19909;43.644;-79.438;2022-08-19T02:42:46;0.30;;;0.30;;
33579;SDS011;19909;43.644;-79.438;2022-08-19T02:45:13;0.45;;;0.40;;
33579;SDS011;19909;43.644;-79.438;2022-08-19T02:47:40;0.32;;;0.30;;
33579;SDS011;19909;43.644;-79.438;2022-08-19T02:50:06;0.30;;;0.30;;
33579;SDS011;19909;43.644;-79.438;2022-08-19T02:52:33;0.40;;;0.30;;
33579;SDS011;19909;43.644;-79.438;2022-08-19T02:55:00;0.20;;;0.20;;
33579;SDS011;19909;43.644;-79.438;2022-08-19T02:57:27;0.30;;;0.30;;
33579;SDS011;19909;43.644;-79.438;2022-08-19T02:59:56;0.43;;;0.30;;
33579;SDS011;19909;43.644;-79.438;2022-08-19T03:02:23;0.30;;;0.30;;
33579;SDS011;19909;43.644;-79.438;2022-08-19T03:04:49;0.60;;;0.40;;
33579;SDS011;19909;43.644;-79.438;2022-08-19T03:07:16;0.15;;;0.15;;
33579;SDS011;19909;43.644;-79.438;2022-08-19T03:09:43;0.40;;;0.20;;
33579;SDS011;19909;43.644;-79.438;2022-08-19T03:12:10;0.32;;;0.20;;
33579;SDS011;19909;43.644;-79.438;2022-08-19T03:14:36;0.50;;;0.38;;
33579;SDS011;19909;43.644;-79.438;2022-08-19T03:17:03;0.20;;;0.20;;
33579;SDS011;19909;43.644;-79.438;2022-08-19T03:19:30;0.20;;;0.20;;
33579;SDS011;19909;43.644;-79.438;2022-08-19T03:21:57;0.40;;;0.30;;
33579;SDS011;19909;43.644;-79.438;2022-08-19T03:24:24;0.10;;;0.10;;
33579;SDS011;19909;43.644;-79.438;2022-08-19T03:26:52;0.22;;;0.22;;
33579;SDS011;19909;43.644;-79.438;2022-08-19T03:29:22;0.63;;;0.30;;
33579;SDS011;19909;43.644;-79.438;2022-08-19T03:31:50;0.20;;;0.20;;
33579;SDS011;19909;43.644;-79.438;2022-08-19T03:34:18;0.30;;;0.30;;
33579;SDS011;19909;43.644;-79.438;2022-08-19T03:36:47;0.57;;;0.20;;
33579;SDS011;19909;43.644;-79.438;2022-08-19T03:39:13;0.38;;;0.28;;
33579;SDS011;19909;43.644;-79.438;2022-08-19T03:41:41;0.32;;;0.30;;
33579;SDS011;19909;43.644;-79.438;2022-08-19T03:44:09;0.30;;;0.30;;
33579;SDS011;19909;43.644;-79.438;2022-08-19T03:46:36;0.20;;;0.20;;
33579;SDS011;19909;43.644;-79.438;2022-08-19T03:49:03;0.30;;;0.20;;
33579;SDS011;19909;43.644;-79.438;2022-08-19T03:51:34;0.20;;;0.20;;
33579;SDS011;19909;43.644;-79.438;2022-08-19T03:54:04;0.20;;;0.20;;
33579;SDS011;19909;43.644;-79.438;2022-08-19T03:56:34;0.30;;;0.30;;
33579;SDS011;19909;43.644;-79.438;2022-08-19T03:59:02;0.50;;;0.20;;
33579;SDS011;19909;43.644;-79.438;2022-08-19T04:01:29;0.10;;;0.10;;
33579;SDS011;19909;43.644;-79.438;2022-08-19T04:03:56;0.20;;;0.10;;
33579;SDS011;19909;43.644;-79.438;2022-08-19T04:06:25;0.28;;;0.25;;
33579;SDS011;19909;43.644;-79.438;2022-08-19T04:08:54;0.20;;;0.20;;
33579;SDS011;19909;43.644;-79.438;2022-08-19T04:11:22;0.30;;;0.30;;
33579;SDS011;19909;43.644;-79.438;2022-08-19T04:13:50;0.10;;;0.10;;
33579;SDS011;19909;43.644;-79.438;2022-08-19T04:16:18;0.38;;;0.20;;
33579;SDS011;19909;43.644;-79.438;2022-08-19T04:18:46;0.57;;;0.38;;
33579;SDS011;19909;43.644;-79.438;2022-08-19T04:21:20;0.68;;;0.20;;
33579;SDS011;19909;43.644;-79.438;2022-08-19T04:23:48;0.20;;;0.20;;
33579;SDS011;19909;43.644;-79.438;2022-08-19T04:26:16;0.30;;;0.20;;
33579;SDS011;19909;43.644;-79.438;2022-08-19T04:28:44;0.38;;;0.38;;
33579;SDS011;19909;43.644;-79.438;2022-08-19T04:31:17;0.30;;;0.30;;
33579;SDS011;19909;43.644;-79.438;2022-08-19T04:33:45;0.20;;;0.20;;
33579;SDS011;19909;43.644;-79.438;2022-08-19T04:36:15;0.50;;;0.22;;
33579;SDS011;19909;43.644;-79.438;2022-08-19T04:38:45;0.20;;;0.20;;
33579;SDS011;19909;43.644;-79.438;2022-08-19T04:41:15;0.30;;;0.30;;
33579;SDS011;19909;43.644;-79.438;2022-08-19T04:44:00;0.30;;;0.20;;
33579;SDS011;19909;43.644;-79.438;2022-08-19T04:46:27;0.30;;;0.30;;
33579;SDS011;19909;43.644;-79.438;2022-08-19T04:48:55;0.40;;;0.30;;
33579;SDS011;19909;43.644;-79.438;2022-08-19T04:51:22;0.35;;;0.25;;
33579;SDS011;19909;43.644;-79.438;2022-08-19T04:53:49;0.20;;;0.20;;
33579;SDS011;19909;43.644;-79.438;2022-08-19T04:56:17;0.20;;;0.20;;
33579;SDS011;19909;43.644;-79.438;2022-08-19T04:58:46;0.50;;;0.35;;
33579;SDS011;19909;43.644;-79.438;2022-08-19T05:04:07;0.30;;;0.30;;
33579;SDS011;19909;43.644;-79.438;2022-08-19T05:06:34;0.50;;;0.40;;
33579;SDS011;19909;43.644;-79.438;2022-08-19T05:09:04;0.20;;;0.20;;
33579;SDS011;19909;43.644;-79.438;2022-08-19T05:11:32;0.30;;;0.20;;
33579;SDS011;19909;43.644;-79.438;2022-08-19T05:14:01;0.30;;;0.20;;
33579;SDS011;19909;43.644;-79.438;2022-08-19T05:16:27;0.52;;;0.30;;
33579;SDS011;19909;43.644;-79.438;2022-08-19T05:18:54;0.30;;;0.28;;
33579;SDS011;19909;43.644;-79.438;2022-08-19T05:21:40;0.15;;;0.15;;
33579;SDS011;19909;43.644;-79.438;2022-08-19T05:24:25;0.50;;;0.30;;
33579;SDS011;19909;43.644;-79.438;2022-08-19T05:26:52;0.40;;;0.30;;
33579;SDS011;19909;43.644;-79.438;2022-08-19T05:29:22;0.30;;;0.30;;
33579;SDS011;19909;43.644;-79.438;2022-08-19T05:31:50;0.20;;;0.10;;
33579;SDS011;19909;43.644;-79.438;2022-08-19T05:34:18;0.45;;;0.22;;
33579;SDS011;19909;43.644;-79.438;2022-08-19T05:36:47;0.20;;;0.20;;
33579;SDS011;19909;43.644;-79.438;2022-08-19T05:39:16;0.40;;;0.40;;
33579;SDS011;19909;43.644;-79.438;2022-08-19T05:41:45;0.20;;;0.20;;
33579;SDS011;19909;43.644;-79.438;2022-08-19T05:44:14;0.65;;;0.40;;
33579;SDS011;19909;43.644;-79.438;2022-08-19T05:46:45;0.20;;;0.20;;
33579;SDS011;19909;43.644;-79.438;2022-08-19T05:49:18;0.15;;;0.15;;
33579;SDS011;19909;43.644;-79.438;2022-08-19T05:51:46;0.30;;;0.30;;
33579;SDS011;19909;43.644;-79.438;2022-08-19T05:54:12;0.30;;;0.30;;
33579;SDS011;19909;43.644;-79.438;2022-08-19T05:56:39;0.50;;;0.30;;
33579;SDS011;19909;43.644;-79.438;2022-08-19T05:59:07;0.73;;;0.43;;
33579;SDS011;19909;43.644;-79.438;2022-08-19T06:01:39;0.20;;;0.20;;
33579;SDS011;19909;43.644;-79.438;2022-08-19T06:04:07;0.40;;;0.30;;
33579;SDS011;19909;43.644;-79.438;2022-08-19T06:06:34;0.20;;;0.20;;
33579;SDS011;19909;43.644;-79.438;2022-08-19T06:09:01;0.68;;;0.30;;
33579;SDS011;19909;43.644;-79.438;2022-08-19T06:16:34;0.30;;;0.30;;
33579;SDS011;19909;43.644;-79.438;2022-08-19T06:19:04;0.38;;;0.30;;
33579;SDS011;19909;43.644;-79.438;2022-08-19T06:21:33;0.38;;;0.30;;
33579;SDS011;19909;43.644;-79.438;2022-08-19T06:24:04;0.40;;;0.30;;
33579;SDS011;19909;43.644;-79.438;2022-08-19T06:26:33;0.20;;;0.20;;
33579;SDS011;19909;43.644;-79.438;2022-08-19T06:29:01;0.38;;;0.30;;
33579;SDS011;19909;43.644;-79.438;2022-08-19T06:31:31;0.22;;;0.22;;
33579;SDS011;19909;43.644;-79.438;2022-08-19T06:33:59;0.35;;;0.35;;
33579;SDS011;19909;43.644;-79.438;2022-08-19T06:36:34;0.38;;;0.30;;
33579;SDS011;19909;43.644;-79.438;2022-08-19T06:41:37;0.20;;;0.20;;
33579;SDS011;19909;43.644;-79.438;2022-08-19T06:44:05;0.30;;;0.30;;
33579;SDS011;19909;43.644;-79.438;2022-08-19T06:46:31;0.20;;;0.20;;
33579;SDS011;19909;43.644;-79.438;2022-08-19T06:48:58;0.20;;;0.20;;
33579;SDS011;19909;43.644;-79.438;2022-08-19T06:51:25;0.40;;;0.40;;
33579;SDS011;19909;43.644;-79.438;2022-08-19T06:53:52;0.40;;;0.40;;
33579;SDS011;19909;43.644;-79.438;2022-08-19T06:56:21;0.77;;;0.40;;
33579;SDS011;19909;43.644;-79.438;2022-08-19T06:58:55;0.25;;;0.20;;
33579;SDS011;19909;43.644;-79.438;2022-08-19T07:01:22;0.43;;;0.43;;
33579;SDS011;19909;43.644;-79.438;2022-08-19T07:03:48;0.25;;;0.25;;
33579;SDS011;19909;43.644;-79.438;2022-08-19T07:06:15;0.30;;;0.20;;
33579;SDS011;19909;43.644;-79.438;2022-08-19T07:08:45;0.38;;;0.20;;
33579;SDS011;19909;43.644;-79.438;2022-08-19T07:11:14;0.20;;;0.20;;
33579;SDS011;19909;43.644;-79.438;2022-08-19T07:13:43;0.17;;;0.17;;
33579;SDS011;19909;43.644;-79.438;2022-08-19T07:16:11;0.43;;;0.43;;
33579;SDS011;19909;43.644;-79.438;2022-08-19T07:18:40;0.20;;;0.20;;
33579;SDS011;19909;43.644;-79.438;2022-08-19T07:21:08;0.28;;;0.20;;
33579;SDS011;19909;43.644;-79.438;2022-08-19T07:23:36;0.30;;;0.30;;
33579;SDS011;19909;43.644;-79.438;2022-08-19T07:28:53;0.40;;;0.30;;
33579;SDS011;19909;43.644;-79.438;2022-08-19T07:31:20;0.30;;;0.30;;
33579;SDS011;19909;43.644;-79.438;2022-08-19T07:33:50;0.63;;;0.45;;
33579;SDS011;19909;43.644;-79.438;2022-08-19T07:36:19;0.30;;;0.30;;
33579;SDS011;19909;43.644;-79.438;2022-08-19T07:38:48;0.30;;;0.20;;
33579;SDS011;19909;43.644;-79.438;2022-08-19T07:41:21;0.38;;;0.30;;
33579;SDS011;19909;43.644;-79.438;2022-08-19T07:43:50;0.47;;;0.32;;
33579;SDS011;19909;43.644;-79.438;2022-08-19T07:46:17;0.28;;;0.28;;
33579;SDS011;19909;43.644;-79.438;2022-08-19T07:48:45;0.30;;;0.30;;
33579;SDS011;19909;43.644;-79.438;2022-08-19T07:51:15;1.45;;;0.30;;
33579;SDS011;19909;43.644;-79.438;2022-08-19T07:53:43;0.28;;;0.20;;
33579;SDS011;19909;43.644;-79.438;2022-08-19T07:56:11;0.40;;;0.30;;
33579;SDS011;19909;43.644;-79.438;2022-08-19T07:58:43;0.63;;;0.40;;
33579;SDS011;19909;43.644;-79.438;2022-08-19T08:01:13;0.63;;;0.38;;
33579;SDS011;19909;43.644;-79.438;2022-08-19T08:03:42;0.30;;;0.30;;
33579;SDS011;19909;43.644;-79.438;2022-08-19T08:06:27;0.20;;;0.20;;
33579;SDS011;19909;43.644;-79.438;2022-08-19T08:09:12;0.60;;;0.32;;
33579;SDS011;19909;43.644;-79.438;2022-08-19T08:11:50;0.30;;;0.30;;
33579;SDS011;19909;43.644;-79.438;2022-08-19T08:14:20;0.30;;;0.30;;
33579;SDS011;19909;43.644;-79.438;2022-08-19T08:16:51;0.35;;;0.30;;
33579;SDS011;19909;43.644;-79.438;2022-08-19T08:19:19;0.40;;;0.35;;
33579;SDS011;19909;43.644;-79.438;2022-08-19T08:21:47;0.38;;;0.30;;
33579;SDS011;19909;43.644;-79.438;2022-08-19T08:24:17;0.30;;;0.30;;
33579;SDS011;19909;43.644;-79.438;2022-08-19T08:26:44;0.45;;;0.30;;
33579;SDS011;19909;43.644;-79.438;2022-08-19T08:29:10;0.30;;;0.30;;
33579;SDS011;19909;43.644;-79.438;2022-08-19T08:31:38;0.22;;;0.22;;
33579;SDS011;19909;43.644;-79.438;2022-08-19T08:34:05;0.30;;;0.30;;
33579;SDS011;19909;43.644;-79.438;2022-08-19T08:36:32;0.40;;;0.30;;
33579;SDS011;19909;43.644;-79.438;2022-08-19T08:39:08;0.20;;;0.20;;
33579;SDS011;19909;43.644;-79.438;2022-08-19T08:44:17;0.60;;;0.45;;
33579;SDS011;19909;43.644;-79.438;2022-08-19T08:47:00;0.63;;;0.45;;
33579;SDS011;19909;43.644;-79.438;2022-08-19T08:49:46;0.30;;;0.30;;
33579;SDS011;19909;43.644;-79.438;2022-08-19T08:52:22;0.82;;;0.30;;
33579;SDS011;19909;43.644;-79.438;2022-08-19T08:55:05;0.50;;;0.30;;
33579;SDS011;19909;43.644;-79.438;2022-08-19T08:57:39;0.30;;;0.30;;
33579;SDS011;19909;43.644;-79.438;2022-08-19T09:03:03;0.20;;;0.20;;
33579;SDS011;19909;43.644;-79.438;2022-08-19T09:05:51;0.20;;;0.20;;
33579;SDS011;19909;43.644;-79.438;2022-08-19T09:08:28;0.47;;;0.32;;
33579;SDS011;19909;43.644;-79.438;2022-08-19T09:10:57;0.40;;;0.32;;
33579;SDS011;19909;43.644;-79.438;2022-08-19T09:16:07;0.30;;;0.30;;
33579;SDS011;19909;43.644;-79.438;2022-08-19T09:18:49;0.30;;;0.30;;
33579;SDS011;19909;43.644;-79.438;2022-08-19T09:21:21;0.52;;;0.40;;
33579;SDS011;19909;43.644;-79.438;2022-08-19T09:23:48;0.40;;;0.40;;
33579;SDS011;19909;43.644;-79.438;2022-08-19T09:26:20;0.38;;;0.30;;
33579;SDS011;19909;43.644;-79.438;2022-08-19T09:28:48;0.20;;;0.20;;
33579;SDS011;19909;43.644;-79.438;2022-08-19T09:31:17;0.38;;;0.30;;
33579;SDS011;19909;43.644;-79.438;2022-08-19T09:33:46;0.25;;;0.20;;
33579;SDS011;19909;43.644;-79.438;2022-08-19T09:36:14;0.40;;;0.30;;
33579;SDS011;19909;43.644;-79.438;2022-08-19T09:38:43;0.50;;;0.40;;
33579;SDS011;19909;43.644;-79.438;2022-08-19T09:41:12;1.10;;;0.32;;
33579;SDS011;19909;43.644;-79.438;2022-08-19T09:43:40;0.75;;;0.50;;
33579;SDS011;19909;43.644;-79.438;2022-08-19T09:46:09;0.32;;;0.32;;
33579;SDS011;19909;43.644;-79.438;2022-08-19T09:48:36;0.40;;;0.38;;
33579;SDS011;19909;43.644;-79.438;2022-08-19T09:51:07;0.32;;;0.20;;
33579;SDS011;19909;43.644;-79.438;2022-08-19T09:53:35;0.57;;;0.22;;
33579;SDS011;19909;43.644;-79.438;2022-08-19T09:56:02;0.38;;;0.35;;
33579;SDS011;19909;43.644;-79.438;2022-08-19T09:58:29;0.50;;;0.40;;
33579;SDS011;19909;43.644;-79.438;2022-08-19T10:00:56;0.40;;;0.40;;
33579;SDS011;19909;43.644;-79.438;2022-08-19T10:03:24;0.30;;;0.30;;
33579;SDS011;19909;43.644;-79.438;2022-08-19T10:05:51;0.40;;;0.40;;
33579;SDS011;19909;43.644;-79.438;2022-08-19T10:08:20;0.68;;;0.52;;
33579;SDS011;19909;43.644;-79.438;2022-08-19T10:10:49;0.40;;;0.40;;
33579;SDS011;19909;43.644;-79.438;2022-08-19T10:13:17;0.35;;;0.35;;
33579;SDS011;19909;43.644;-79.438;2022-08-19T10:15:56;0.28;;;0.25;;
33579;SDS011;19909;43.644;-79.438;2022-08-19T10:18:28;1.50;;;0.30;;
33579;SDS011;19909;43.644;-79.438;2022-08-19T10:21:02;0.40;;;0.38;;
33579;SDS011;19909;43.644;-79.438;2022-08-19T10:23:34;0.43;;;0.38;;
33579;SDS011;19909;43.644;-79.438;2022-08-19T10:26:03;0.60;;;0.30;;
33579;SDS011;19909;43.644;-79.438;2022-08-19T10:28:33;0.30;;;0.30;;
33579;SDS011;19909;43.644;-79.438;2022-08-19T10:31:09;0.45;;;0.35;;
33579;SDS011;19909;43.644;-79.438;2022-08-19T10:33:37;2.00;;;0.40;;
33579;SDS011;19909;43.644;-79.438;2022-08-19T10:36:06;0.63;;;0.50;;
33579;SDS011;19909;43.644;-79.438;2022-08-19T10:38:35;0.63;;;0.40;;
33579;SDS011;19909;43.644;-79.438;2022-08-19T10:41:11;0.32;;;0.30;;
33579;SDS011;19909;43.644;-79.438;2022-08-19T10:43:40;0.52;;;0.40;;
33579;SDS011;19909;43.644;-79.438;2022-08-19T10:46:11;0.30;;;0.30;;
33579;SDS011;19909;43.644;-79.438;2022-08-19T10:48:39;0.53;;;0.53;;
33579;SDS011;19909;43.644;-79.438;2022-08-19T10:51:07;0.45;;;0.30;;
33579;SDS011;19909;43.644;-79.438;2022-08-19T10:53:52;0.30;;;0.30;;
33579;SDS011;19909;43.644;-79.438;2022-08-19T10:56:18;0.43;;;0.40;;
33579;SDS011;19909;43.644;-79.438;2022-08-19T10:59:03;0.50;;;0.50;;
33579;SDS011;19909;43.644;-79.438;2022-08-19T11:01:31;0.40;;;0.40;;
33579;SDS011;19909;43.644;-79.438;2022-08-19T11:03:59;0.40;;;0.40;;
33579;SDS011;19909;43.644;-79.438;2022-08-19T11:06:26;0.47;;;0.43;;
33579;SDS011;19909;43.644;-79.438;2022-08-19T11:08:53;0.80;;;0.40;;
33579;SDS011;19909;43.644;-79.438;2022-08-19T11:11:20;0.47;;;0.40;;
33579;SDS011;19909;43.644;-79.438;2022-08-19T11:13:47;0.70;;;0.30;;
33579;SDS011;19909;43.644;-79.438;2022-08-19T11:16:17;0.35;;;0.28;;
33579;SDS011;19909;43.644;-79.438;2022-08-19T11:18:48;0.37;;;0.30;;
33579;SDS011;19909;43.644;-79.438;2022-08-19T11:21:18;0.50;;;0.45;;
33579;SDS011;19909;43.644;-79.438;2022-08-19T11:23:51;0.30;;;0.25;;
33579;SDS011;19909;43.644;-79.438;2022-08-19T11:26:19;0.45;;;0.45;;
33579;SDS011;19909;43.644;-79.438;2022-08-19T11:28:47;0.30;;;0.30;;
33579;SDS011;19909;43.644;-79.438;2022-08-19T11:31:14;0.55;;;0.40;;
33579;SDS011;19909;43.644;-79.438;2022-08-19T11:33:42;0.68;;;0.50;;
33579;SDS011;19909;43.644;-79.438;2022-08-19T11:36:09;1.00;;;0.35;;
33579;SDS011;19909;43.644;-79.438;2022-08-19T11:38:36;0.40;;;0.38;;
33579;SDS011;19909;43.644;-79.438;2022-08-19T11:41:04;1.08;;;0.40;;
33579;SDS011;19909;43.644;-79.438;2022-08-19T11:43:32;0.52;;;0.25;;
33579;SDS011;19909;43.644;-79.438;2022-08-19T11:46:02;0.32;;;0.30;;
33579;SDS011;19909;43.644;-79.438;2022-08-19T11:48:32;0.45;;;0.40;;
33579;SDS011;19909;43.644;-79.438;2022-08-19T11:50:59;0.50;;;0.40;;
33579;SDS011;19909;43.644;-79.438;2022-08-19T11:53:30;0.40;;;0.40;;
33579;SDS011;19909;43.644;-79.438;2022-08-19T11:55:57;0.55;;;0.55;;
33579;SDS011;19909;43.644;-79.438;2022-08-19T11:58:23;0.30;;;0.30;;
33579;SDS011;19909;43.644;-79.438;2022-08-19T12:00:50;0.38;;;0.30;;
33579;SDS011;19909;43.644;-79.438;2022-08-19T12:03:17;0.63;;;0.40;;
33579;SDS011;19909;43.644;-79.438;2022-08-19T12:05:44;0.60;;;0.40;;
33579;SDS011;19909;43.644;-79.438;2022-08-19T12:08:11;0.20;;;0.20;;
33579;SDS011;19909;43.644;-79.438;2022-08-19T12:10:40;0.32;;;0.30;;
33579;SDS011;19909;43.644;-79.438;2022-08-19T12:13:08;0.43;;;0.40;;
33579;SDS011;19909;43.644;-79.438;2022-08-19T12:15:36;0.30;;;0.30;;
33579;SDS011;19909;43.644;-79.438;2022-08-19T12:18:05;0.32;;;0.30;;
33579;SDS011;19909;43.644;-79.438;2022-08-19T12:20:36;0.52;;;0.30;;
33579;SDS011;19909;43.644;-79.438;2022-08-19T12:23:06;0.68;;;0.40;;
33579;SDS011;19909;43.644;-79.438;2022-08-19T12:25:35;0.20;;;0.20;;
33579;SDS011;19909;43.644;-79.438;2022-08-19T12:28:02;0.30;;;0.30;;
33579;SDS011;19909;43.644;-79.438;2022-08-19T12:30:28;1.50;;;0.40;;
33579;SDS011;19909;43.644;-79.438;2022-08-19T12:32:55;0.50;;;0.40;;
33579;SDS011;19909;43.644;-79.438;2022-08-19T12:35:21;0.60;;;0.30;;
33579;SDS011;19909;43.644;-79.438;2022-08-19T12:37:47;0.38;;;0.30;;
33579;SDS011;19909;43.644;-79.438;2022-08-19T12:40:15;0.57;;;0.38;;
33579;SDS011;19909;43.644;-79.438;2022-08-19T12:42:44;0.40;;;0.40;;
33579;SDS011;19909;43.644;-79.438;2022-08-19T12:45:11;0.40;;;0.32;;
33579;SDS011;19909;43.644;-79.438;2022-08-19T12:47:38;0.40;;;0.40;;
33579;SDS011;19909;43.644;-79.438;2022-08-19T12:50:05;0.95;;;0.70;;
33579;SDS011;19909;43.644;-79.438;2022-08-19T12:52:34;0.40;;;0.40;;
33579;SDS011;19909;43.644;-79.438;2022-08-19T12:55:06;0.95;;;0.50;;
33579;SDS011;19909;43.644;-79.438;2022-08-19T12:57:33;0.60;;;0.50;;
33579;SDS011;19909;43.644;-79.438;2022-08-19T13:00:10;0.40;;;0.40;;
33579;SDS011;19909;43.644;-79.438;2022-08-19T13:02:41;0.43;;;0.40;;
33579;SDS011;19909;43.644;-79.438;2022-08-19T13:05:11;0.60;;;0.40;;
33579;SDS011;19909;43.644;-79.438;2022-08-19T13:07:41;0.30;;;0.30;;
33579;SDS011;19909;43.644;-79.438;2022-08-19T13:10:12;0.43;;;0.40;;
33579;SDS011;19909;43.644;-79.438;2022-08-19T13:12:41;0.70;;;0.43;;
33579;SDS011;19909;43.644;-79.438;2022-08-19T13:15:08;0.30;;;0.30;;
33579;SDS011;19909;43.644;-79.438;2022-08-19T13:17:35;0.30;;;0.28;;
33579;SDS011;19909;43.644;-79.438;2022-08-19T13:20:02;0.52;;;0.25;;
33579;SDS011;19909;43.644;-79.438;2022-08-19T13:22:31;0.50;;;0.30;;
33579;SDS011;19909;43.644;-79.438;2022-08-19T13:24:57;0.57;;;0.40;;
33579;SDS011;19909;43.644;-79.438;2022-08-19T13:27:23;0.55;;;0.40;;
33579;SDS011;19909;43.644;-79.438;2022-08-19T13:29:49;1.15;;;0.30;;
33579;SDS011;19909;43.644;-79.438;2022-08-19T13:32:34;0.50;;;0.40;;
33579;SDS011;19909;43.644;-79.438;2022-08-19T13:35:19;0.55;;;0.20;;
33579;SDS011;19909;43.644;-79.438;2022-08-19T13:37:45;0.30;;;0.30;;
33579;SDS011;19909;43.644;-79.438;2022-08-19T13:40:12;0.30;;;0.20;;
33579;SDS011;19909;43.644;-79.438;2022-08-19T13:42:43;0.20;;;0.20;;
33579;SDS011;19909;43.644;-79.438;2022-08-19T13:45:13;0.60;;;0.30;;
33579;SDS011;19909;43.644;-79.438;2022-08-19T13:47:41;0.40;;;0.30;;
33579;SDS011;19909;43.644;-79.438;2022-08-19T13:50:11;0.20;;;0.13;;
33579;SDS011;19909;43.644;-79.438;2022-08-19T13:52:40;0.30;;;0.20;;
33579;SDS011;19909;43.644;-79.438;2022-08-19T13:55:07;0.20;;;0.20;;
33579;SDS011;19909;43.644;-79.438;2022-08-19T13:57:34;0.57;;;0.30;;
33579;SDS011;19909;43.644;-79.438;2022-08-19T14:00:03;0.30;;;0.20;;
33579;SDS011;19909;43.644;-79.438;2022-08-19T14:02:32;0.20;;;0.10;;
33579;SDS011;19909;43.644;-79.438;2022-08-19T14:04:59;0.20;;;0.20;;
33579;SDS011;19909;43.644;-79.438;2022-08-19T14:07:25;0.10;;;0.10;;
33579;SDS011;19909;43.644;-79.438;2022-08-19T14:09:51;1.35;;;0.17;;
33579;SDS011;19909;43.644;-79.438;2022-08-19T14:12:21;0.20;;;0.20;;
33579;SDS011;19909;43.644;-79.438;2022-08-19T14:14:47;0.22;;;0.20;;
33579;SDS011;19909;43.644;-79.438;2022-08-19T14:17:14;0.17;;;0.17;;
33579;SDS011;19909;43.644;-79.438;2022-08-19T14:19:40;0.20;;;0.20;;
33579;SDS011;19909;43.644;-79.438;2022-08-19T14:22:07;0.20;;;0.10;;
33579;SDS011;19909;43.644;-79.438;2022-08-19T14:24:34;0.17;;;0.17;;
33579;SDS011;19909;43.644;-79.438;2022-08-19T14:27:04;0.10;;;0.10;;
33579;SDS011;19909;43.644;-79.438;2022-08-19T14:29:34;0.13;;;0.13;;
33579;SDS011;19909;43.644;-79.438;2022-08-19T14:32:00;0.10;;;0.10;;
33579;SDS011;19909;43.644;-79.438;2022-08-19T14:34:26;0.10;;;0.10;;
33579;SDS011;19909;43.644;-79.438;2022-08-19T14:36:52;0.20;;;0.20;;
33579;SDS011;19909;43.644;-79.438;2022-08-19T14:39:19;0.17;;;0.10;;
33579;SDS011;19909;43.644;-79.438;2022-08-19T14:41:45;0.43;;;0.20;;
33579;SDS011;19909;43.644;-79.438;2022-08-19T14:44:12;0.10;;;0.10;;
33579;SDS011;19909;43.644;-79.438;2022-08-19T14:46:38;0.20;;;0.20;;
33579;SDS011;19909;43.644;-79.438;2022-08-19T14:49:05;0.10;;;0.10;;
33579;SDS011;19909;43.644;-79.438;2022-08-19T14:51:32;0.22;;;0.10;;
33579;SDS011;19909;43.644;-79.438;2022-08-19T14:53:59;0.13;;;0.10;;
33579;SDS011;19909;43.644;-79.438;2022-08-19T14:56:26;0.10;;;0.00;;
33579;SDS011;19909;43.644;-79.438;2022-08-19T14:58:54;0.17;;;0.17;;
33579;SDS011;19909;43.644;-79.438;2022-08-19T15:01:24;0.20;;;0.20;;
33579;SDS011;19909;43.644;-79.438;2022-08-19T15:03:51;0.20;;;0.20;;